Time;durP1;ratioP1;P1;durP2;ratioP2;P2;SDS_P1;SDS_P2;PMS_P1;PMS_P2;Temp;Humidity;BMP_temperature;BMP_pressure;BME280_temperature;BME280_humidity;BME280_pressure;Samples;Min_cycle;Max_cycle;Signal;HPM_P1;HPM_P2
2022/01/11 00:00:45;;;;;;;19.73;7.53;;;;;;;-0.58;89.44;102970.25;5078851;28;20021;-90
2022/01/11 00:03:11;;;;;;;18.15;6.85;;;;;;;-0.55;89.69;102971.34;5075686;28;20017;-90
2022/01/11 00:06:00;;;;;;;16.27;6.10;;;;;;;-0.53;89.42;102974.88;5073514;28;20107;-91
2022/01/11 00:08:31;;;;;;;16.88;6.50;;;;;;;-0.52;89.95;102981.75;5073020;28;20410;-90
2022/01/11 00:11:21;;;;;;;20.85;8.63;;;;;;;-0.49;89.61;102986.16;5053212;28;20047;-91
2022/01/11 00:13:46;;;;;;;18.65;7.50;;;;;;;-0.52;89.34;102985.97;5050091;28;20495;-90
2022/01/11 00:16:14;;;;;;;18.27;7.20;;;;;;;-0.47;89.75;102995.69;5056624;28;20104;-91
2022/01/11 00:18:55;;;;;;;15.88;5.75;;;;;;;-0.45;nan;103013.63;5056781;28;20033;-90
2022/01/11 00:21:21;;;;;;;15.30;5.80;;;;;;;-0.47;89.71;103003.34;5056454;28;20100;-91
2022/01/11 00:24:36;;;;;;;14.55;5.55;;;;;;;-0.44;89.81;103009.41;5056895;28;20025;-91
2022/01/11 00:27:09;;;;;;;12.67;4.80;;;;;;;-0.39;89.62;103015.72;5056399;28;20458;-90
2022/01/11 00:29:41;;;;;;;14.30;5.45;;;;;;;-0.41;89.51;103005.41;5055978;28;20858;-90
2022/01/11 00:32:11;;;;;;;19.73;7.90;;;;;;;-0.45;89.59;103010.22;5056345;28;20359;-90
2022/01/11 00:34:48;;;;;;;20.95;8.93;;;;;;;-0.45;89.25;103012.78;5056494;28;20036;-91
2022/01/11 00:37:17;;;;;;;19.67;8.45;;;;;;;-0.53;89.53;103022.47;5055966;28;20100;-91
2022/01/11 00:39:46;;;;;;;22.33;9.45;;;;;;;-0.47;89.52;103015.19;5056627;28;20037;-90
2022/01/11 00:42:22;;;;;;;24.60;11.13;;;;;;;-0.55;89.55;103012.16;5053171;28;20041;-90
2022/01/11 00:44:48;;;;;;;24.10;10.68;;;;;;;-0.61;89.38;102993.91;5056392;28;20021;-90
2022/01/11 00:47:27;;;;;;;21.15;9.07;;;;;;;-0.57;89.33;102994.97;5055747;28;20035;-90
2022/01/11 00:49:53;;;;;;;20.98;8.63;;;;;;;-0.60;89.83;102988.03;5055778;28;20422;-90
2022/01/11 00:52:34;;;;;;;24.70;11.55;;;;;;;-0.57;89.27;102988.22;5017179;28;20037;-91
2022/01/11 00:55:00;;;;;;;23.20;10.07;;;;;;;-0.54;89.13;102998.63;5053238;28;20488;-90
2022/01/11 00:57:25;;;;;;;21.65;9.15;;;;;;;-0.54;89.43;102998.63;5060751;23;20061;-90
2022/01/11 00:59:50;;;;;;;22.42;9.82;;;;;;;-0.53;89.20;102995.28;5071430;28;20021;-90
2022/01/11 01:02:32;;;;;;;21.52;8.88;;;;;;;-0.53;89.26;102992.72;5056626;28;20051;-90
2022/01/11 01:04:57;;;;;;;22.33;9.38;;;;;;;-0.52;89.52;103001.28;5056191;28;20053;-90
2022/01/11 01:07:41;;;;;;;23.30;9.50;;;;;;;-0.53;89.53;103004.63;5055024;28;20060;-91
2022/01/11 01:10:14;;;;;;;22.70;9.68;;;;;;;-0.52;89.66;103009.81;5055507;28;20052;-90
2022/01/11 01:12:52;;;;;;;23.33;10.02;;;;;;;-0.62;89.48;103005.75;5055661;28;20021;-90
2022/01/11 01:15:19;;;;;;;22.85;9.80;;;;;;;-0.59;89.77;103020.41;5055678;28;20017;-90
2022/01/11 01:17:44;;;;;;;20.35;8.32;;;;;;;-0.62;90.07;103004.88;5055733;28;20158;-91
2022/01/11 01:20:38;;;;;;;19.05;7.22;;;;;;;-0.58;89.96;103001.75;5055494;28;20476;-90
2022/01/11 01:23:03;;;;;;;20.08;7.88;;;;;;;-0.53;90.20;103007.16;5007444;28;20048;-90
2022/01/11 01:25:48;;;;;;;24.50;10.43;;;;;;;-0.49;89.32;103010.00;5034731;28;20017;-90
2022/01/11 01:28:15;;;;;;;25.13;10.73;;;;;;;-0.52;89.82;103003.84;5035058;28;20044;-90
2022/01/11 01:30:40;;;;;;;23.10;10.18;;;;;;;-0.55;90.00;103019.78;5035244;28;20092;-91
2022/01/11 01:33:20;;;;;;;23.83;9.93;;;;;;;-0.66;90.31;103008.00;5034531;28;20072;-90
2022/01/11 01:35:51;;;;;;;26.17;10.57;;;;;;;-0.68;90.02;103010.47;5035396;28;20103;-90
2022/01/11 01:38:35;;;;;;;24.00;9.73;;;;;;;-0.64;90.22;103011.56;5035283;28;20083;-88
2022/01/11 01:41:09;;;;;;;27.90;12.40;;;;;;;-0.62;90.48;103002.34;5035423;28;20111;-90
2022/01/11 01:43:56;;;;;;;25.58;11.18;;;;;;;-0.65;90.52;103010.69;5035586;28;20148;-91
2022/01/11 01:46:23;;;;;;;24.23;10.05;;;;;;;-0.66;90.51;103018.22;5034671;28;20029;-90
2022/01/11 01:49:07;;;;;;;25.25;11.75;;;;;;;-0.70;90.28;103003.50;5035250;28;20021;-91
2022/01/11 01:51:32;;;;;;;29.85;13.32;;;;;;;-0.66;89.77;103008.91;5035297;28;20022;-90
2022/01/11 01:53:58;;;;;;;25.85;11.00;;;;;;;-0.66;89.99;103008.00;5035312;28;20033;-90
2022/01/11 01:56:39;;;;;;;24.92;10.70;;;;;;;-0.65;90.29;103010.69;5034058;28;20064;-89
2022/01/11 01:59:05;;;;;;;30.73;14.18;;;;;;;-0.56;89.88;103010.38;5048098;28;20049;-90
2022/01/11 02:01:35;;;;;;;27.23;11.65;;;;;;;-0.59;89.77;103022.06;5038904;28;20013;-91
2022/01/11 02:04:10;;;;;;;26.35;11.75;;;;;;;-0.65;89.46;103007.22;5030831;28;20540;-91
2022/01/11 02:06:36;;;;;;;29.02;12.82;;;;;;;-0.55;89.75;103017.25;5034704;28;20025;-90
2022/01/11 02:09:22;;;;;;;30.83;14.38;;;;;;;-0.54;89.26;103029.22;5034626;28;20033;-90
2022/01/11 02:11:48;;;;;;;26.58;11.73;;;;;;;-0.64;89.88;103026.84;5034357;28;20045;-90
2022/01/11 02:14:13;;;;;;;28.50;12.43;;;;;;;-0.65;89.95;103030.19;5034687;28;20029;-90
2022/01/11 02:16:56;;;;;;;26.58;11.35;;;;;;;-0.70;89.68;103024.78;5034252;28;20036;-91
2022/01/11 02:19:22;;;;;;;25.02;10.25;;;;;;;-0.69;90.21;103030.78;5034299;28;20030;-91
2022/01/11 02:21:47;;;;;;;23.40;9.48;;;;;;;-0.62;90.07;103035.50;5057441;22;20524;-90
2022/01/11 02:24:12;;;;;;;26.60;11.27;;;;;;;-0.65;90.04;103033.63;5053727;28;20037;-91
2022/01/11 02:26:37;;;;;;;24.60;10.70;;;;;;;-0.60;90.07;103043.22;5054323;28;20025;-91
2022/01/11 02:29:03;;;;;;;27.52;12.07;;;;;;;-0.62;89.86;103043.16;5054244;28;20017;-90
2022/01/11 02:31:28;;;;;;;27.17;12.13;;;;;;;-0.62;89.93;103049.13;5054020;28;20100;-90
2022/01/11 02:33:57;;;;;;;27.45;12.05;;;;;;;-0.63;89.80;103052.47;5053997;28;20025;-90
2022/01/11 02:36:30;;;;;;;30.55;13.80;;;;;;;-0.59;89.57;103053.56;5053349;28;20017;-90
2022/01/11 02:38:57;;;;;;;29.23;12.93;;;;;;;-0.67;89.58;103060.69;5128059;22;20475;-90
2022/01/11 02:41:26;;;;;;;;;;;;;;;-0.66;90.19;103064.13;5074134;28;20028;-90
2022/01/11 02:43:51;;;;;;;25.55;10.85;;;;;;;-0.66;89.86;103062.47;5073935;28;19912;-91
2022/01/11 02:46:22;;;;;;;23.70;9.52;;;;;;;-0.66;89.78;103069.22;5073895;28;20468;-90
2022/01/11 02:48:53;;;;;;;22.70;8.75;;;;;;;-0.66;89.77;103069.22;5074194;28;20028;-90
2022/01/11 02:51:18;;;;;;;20.50;8.23;;;;;;;-0.64;89.90;103068.56;5073976;28;20028;-91
2022/01/11 02:53:46;;;;;;;26.83;11.63;;;;;;;-0.59;89.69;103073.06;5074258;28;20458;-90
2022/01/11 02:56:12;;;;;;;24.67;10.43;;;;;;;-0.68;90.08;103063.16;5073691;28;20104;-91
2022/01/11 02:58:38;;;;;;;24.30;10.40;;;;;;;-0.66;89.67;103065.03;5081323;28;20032;-90
2022/01/11 03:01:07;;;;;;;22.98;9.45;;;;;;;-0.66;90.15;103077.78;5077888;28;20028;-91
2022/01/11 03:06:17;;;;;;;21.38;8.77;;;;;;;-0.60;89.94;103077.28;5073606;28;20038;-91
2022/01/11 03:09:00;;;;;;;23.52;9.35;;;;;;;-0.64;90.48;103073.66;5073762;28;20115;-90
2022/01/11 03:11:32;;;;;;;22.35;9.35;;;;;;;-0.62;89.91;103073.75;5073693;28;20104;-90
2022/01/11 03:14:12;;;;;;;22.27;8.77;;;;;;;-0.62;89.91;103076.31;5073936;28;20078;-90
2022/01/11 03:16:37;;;;;;;22.95;9.45;;;;;;;-0.63;89.80;103070.34;5073364;28;20029;-91
2022/01/11 03:19:02;;;;;;;24.77;10.23;;;;;;;-0.70;90.15;103062.16;5073351;28;20055;-91
2022/01/11 03:21:51;;;;;;;24.95;10.50;;;;;;;-0.65;90.02;103081.19;5073677;28;20095;-91
2022/01/11 03:24:17;;;;;;;24.80;9.93;;;;;;;-0.67;90.22;103067.44;5073608;28;20024;-90
2022/01/11 03:27:01;;;;;;;28.15;11.93;;;;;;;-0.63;89.90;103077.97;5073703;28;20544;-90
2022/01/11 03:29:27;;;;;;;26.05;11.60;;;;;;;-0.69;89.97;103058.84;5073425;28;20032;-91
2022/01/11 03:31:52;;;;;;;28.13;12.90;;;;;;;-0.67;90.05;103059.78;5073802;28;20078;-90
2022/01/11 03:34:41;;;;;;;24.63;10.52;;;;;;;-0.64;89.98;103072.75;5073487;28;20020;-91
2022/01/11 03:37:24;;;;;;;26.83;11.57;;;;;;;-0.63;89.95;103060.13;5070337;28;20393;-90
2022/01/11 03:39:50;;;;;;;24.60;10.77;;;;;;;-0.70;89.83;103055.38;5073833;28;20036;-90
2022/01/11 03:42:16;;;;;;;23.77;10.10;;;;;;;-0.66;89.87;103065.03;5072744;28;20020;-91
2022/01/11 03:44:59;;;;;;;24.65;10.35;;;;;;;-0.68;89.77;103052.97;5073435;28;20442;-91
2022/01/11 03:47:24;;;;;;;24.23;9.80;;;;;;;-0.67;89.91;103057.25;5075610;28;20086;-91
2022/01/11 03:49:50;;;;;;;22.45;8.70;;;;;;;-0.68;89.55;103058.91;5077400;28;20021;-90
2022/01/11 03:52:25;;;;;;;22.63;9.70;;;;;;;-0.70;89.82;103057.06;5077133;28;20073;-91
2022/01/11 03:55:13;;;;;;;24.70;10.45;;;;;;;-0.65;89.87;103069.34;5076709;28;20070;-90
2022/01/11 03:57:57;;;;;;;24.40;9.88;;;;;;;-0.70;89.88;103067.25;5078750;28;20047;-91
2022/01/11 04:00:22;;;;;;;24.30;10.98;;;;;;;-0.71;89.83;103061.25;5085482;28;20024;-91
2022/01/11 04:02:48;;;;;;;25.02;11.15;;;;;;;-0.77;89.68;103063.41;5077345;28;20074;-91
2022/01/11 04:05:25;;;;;;;25.23;11.43;;;;;;;-0.80;89.74;103070.84;5076349;28;20020;-91
2022/01/11 04:07:51;;;;;;;25.10;11.10;;;;;;;-0.81;90.26;103076.72;5076368;28;20021;-91
2022/01/11 04:10:16;;;;;;;22.27;9.48;;;;;;;-0.80;90.11;103087.06;5076272;28;20020;-91
2022/01/11 04:15:51;;;;;;;24.75;10.35;;;;;;;-0.81;90.21;103079.28;5077209;28;20047;-91
2022/01/11 04:18:17;;;;;;;24.30;10.52;;;;;;;-0.82;89.87;103088.59;5065416;28;20037;-91
2022/01/11 04:20:42;;;;;;;23.80;9.68;;;;;;;-0.80;89.48;103086.16;5056164;28;20025;-91
2022/01/11 04:23:11;;;;;;;23.83;10.30;;;;;;;-0.79;90.28;103083.69;5056436;28;20021;-91
2022/01/11 04:25:37;;;;;;;24.58;10.25;;;;;;;-0.83;89.93;103083.38;5056844;28;20075;-90
2022/01/11 04:28:03;;;;;;;26.73;12.18;;;;;;;-0.85;90.17;103083.28;5056475;28;20025;-92
2022/01/11 04:30:28;;;;;;;26.30;11.50;;;;;;;-0.85;89.86;103085.84;5066675;28;20036;-91
2022/01/11 04:32:53;;;;;;;25.45;11.65;;;;;;;-0.84;89.88;103090.16;5076608;28;20027;-91
2022/01/11 04:35:18;;;;;;;25.98;11.40;;;;;;;-0.88;89.99;103083.06;5075546;28;20056;-91
2022/01/11 04:38:03;;;;;;;25.92;11.38;;;;;;;-0.83;89.95;103085.94;5068671;28;20044;-91
2022/01/11 04:40:28;;;;;;;27.98;12.77;;;;;;;-0.90;90.36;103086.31;5056588;28;20014;-91
2022/01/11 04:42:53;;;;;;;24.33;10.48;;;;;;;-0.89;90.11;103094.06;5067334;28;20350;-92
2022/01/11 04:45:44;;;;;;;26.55;11.82;;;;;;;-0.79;90.15;103105.78;5076004;28;20035;-90
2022/01/11 04:48:26;;;;;;;26.05;11.32;;;;;;;-0.90;90.23;103084.63;5075619;28;20457;-90
2022/01/11 04:51:07;;;;;;;23.67;9.90;;;;;;;-0.90;90.16;103088.84;5076378;28;20020;-91
2022/01/11 04:53:32;;;;;;;25.20;11.25;;;;;;;-0.86;90.17;103091.72;5076333;28;20047;-92
2022/01/11 04:56:12;;;;;;;23.17;10.15;;;;;;;-0.93;90.29;103082.75;5070865;28;20087;-91
2022/01/11 04:58:38;;;;;;;28.20;12.52;;;;;;;-0.96;89.97;103076.56;5085208;28;20040;-90
2022/01/11 05:04:11;;;;;;;28.10;12.80;;;;;;;-0.90;89.85;103086.31;5076099;28;20035;-91
2022/01/11 05:06:37;;;;;;;28.98;13.57;;;;;;;-0.96;90.13;103089.31;5075665;28;20028;-91
2022/01/11 05:09:02;;;;;;;29.75;12.90;;;;;;;-1.01;89.89;103088.09;5075097;28;20028;-91
2022/01/11 05:11:28;;;;;;;28.02;13.02;;;;;;;-1.01;90.13;103083.00;5075451;28;20476;-91
2022/01/11 05:13:53;;;;;;;26.52;11.85;;;;;;;-1.01;90.15;103090.66;5076101;28;20033;-90
2022/01/11 05:16:28;;;;;;;26.63;12.18;;;;;;;-1.04;89.91;103077.72;5075380;28;20046;-91
2022/01/11 05:19:14;;;;;;;26.02;11.65;;;;;;;-1.09;90.49;103074.88;5069275;28;20060;-90
2022/01/11 05:21:40;;;;;;;24.40;10.52;;;;;;;-1.11;89.88;103072.19;5055686;28;20108;-91
2022/01/11 05:24:09;;;;;;;29.98;13.63;;;;;;;-1.09;90.19;103075.72;5055232;28;20025;-90
2022/01/11 05:26:49;;;;;;;26.63;12.15;;;;;;;-1.15;90.01;103071.88;5055541;28;20033;-91
2022/01/11 05:29:14;;;;;;;27.27;11.98;;;;;;;-1.20;90.21;103069.00;5054839;28;20024;-91
2022/01/11 05:32:03;;;;;;;31.70;13.98;;;;;;;-1.12;89.96;103082.28;5055412;28;20342;-91
2022/01/11 05:34:43;;;;;;;32.55;15.25;;;;;;;-1.20;89.26;103066.47;5055116;28;20492;-90
2022/01/11 05:37:26;;;;;;;31.15;14.70;;;;;;;-1.31;90.20;103063.19;5052788;28;20421;-90
2022/01/11 05:39:53;;;;;;;30.17;14.15;;;;;;;-1.34;89.95;103072.25;5035584;28;20359;-91
2022/01/11 05:45:44;;;;;;;30.02;13.48;;;;;;;-1.34;90.17;103080.81;5054404;28;20331;-90
2022/01/11 05:48:27;;;;;;;29.85;12.98;;;;;;;-1.37;90.09;103075.50;5051448;28;20033;-90
2022/01/11 05:50:53;;;;;;;28.20;12.85;;;;;;;-1.39;89.93;103074.50;5055027;28;20036;-90
2022/01/11 05:53:28;;;;;;;28.95;13.80;;;;;;;-1.34;89.62;103087.53;5054780;28;20025;-90
2022/01/11 05:56:09;;;;;;;28.95;12.98;;;;;;;-1.34;90.09;103087.53;5052690;28;20059;-90
2022/01/11 05:58:35;;;;;;;26.45;11.50;;;;;;;-1.35;89.76;103088.34;5061333;28;20093;-89
2022/01/11 06:01:16;;;;;;;27.70;11.35;;;;;;;-1.40;89.94;103086.34;5058585;28;20068;-89
2022/01/11 06:03:41;;;;;;;25.50;10.48;;;;;;;-1.42;89.98;103098.09;5054139;28;20041;-88
2022/01/11 06:06:06;;;;;;;23.77;9.88;;;;;;;-1.38;89.83;103108.50;5054478;28;20413;-89
2022/01/11 06:08:50;;;;;;;24.15;10.35;;;;;;;-1.39;89.82;103112.69;5035684;28;20028;-86
2022/01/11 06:11:29;;;;;;;22.30;9.27;;;;;;;-1.43;89.64;103109.06;5032367;28;20497;-86
2022/01/11 06:14:04;;;;;;;23.80;9.57;;;;;;;-1.40;89.68;103110.94;5033348;28;20037;-86
2022/01/11 06:16:41;;;;;;;22.25;9.13;;;;;;;-1.34;89.67;103129.22;5033621;28;20030;-86
2022/01/11 06:19:10;;;;;;;21.85;8.40;;;;;;;-1.40;89.46;103126.22;5037137;28;20048;-85
2022/01/11 06:21:35;;;;;;;21.55;8.40;;;;;;;-1.36;90.00;103120.56;5053611;28;20108;-85
2022/01/11 06:24:18;;;;;;;22.38;8.80;;;;;;;-1.37;89.61;103133.22;5052953;28;20112;-85
2022/01/11 06:26:44;;;;;;;23.88;10.10;;;;;;;-1.31;90.02;103141.28;5052602;28;20396;-85
2022/01/11 06:29:22;;;;;;;23.35;9.38;;;;;;;-1.37;89.75;103136.63;5052733;28;20108;-84
2022/01/11 06:31:47;;;;;;;23.25;9.10;;;;;;;-1.35;89.79;103142.72;5040090;28;20075;-85
2022/01/11 06:34:13;;;;;;;20.88;8.00;;;;;;;-1.38;89.35;103145.03;5031941;28;20432;-85
2022/01/11 06:36:59;;;;;;;21.50;8.02;;;;;;;-1.41;89.47;103143.16;5033103;28;20021;-85
2022/01/11 06:39:42;;;;;;;23.52;9.77;;;;;;;-1.46;89.78;103134.31;5039747;28;20490;-85
2022/01/11 06:42:08;;;;;;;23.30;9.32;;;;;;;-1.28;90.23;103146.59;5052182;28;20025;-84
2022/01/11 06:44:53;;;;;;;26.95;11.35;;;;;;;-1.41;89.70;103150.81;5035062;28;20025;-85
2022/01/11 06:47:28;;;;;;;;;;;;;;;;;;;;;
2022/01/11 06:49:57;;;;;;;23.90;10.37;;;;;;;-1.40;90.19;103157.69;4998533;28;20427;-90
2022/01/11 06:52:23;;;;;;;27.30;11.95;;;;;;;-1.49;nan;103145.94;5033277;28;20025;-87
2022/01/11 06:54:57;;;;;;;27.75;12.00;;;;;;;-1.51;89.30;103143.28;5036150;28;20105;-91
2022/01/11 06:57:24;;;;;;;27.42;11.95;;;;;;;-1.57;89.66;103146.28;5053320;28;20036;-87
2022/01/11 06:59:50;;;;;;;25.33;10.90;;;;;;;-1.52;89.41;103158.47;5057652;28;20528;-88
2022/01/11 07:02:29;;;;;;;25.33;10.82;;;;;;;-1.52;89.84;103155.94;5052990;28;20029;-87
2022/01/11 07:04:56;;;;;;;24.75;10.48;;;;;;;-1.53;89.47;103147.38;5052127;28;20033;-84
2022/01/11 07:07:22;;;;;;;23.73;9.77;;;;;;;-1.54;89.94;103155.81;5050484;28;20071;-84
2022/01/11 07:09:47;;;;;;;25.05;10.48;;;;;;;-1.50;89.73;103162.00;5052321;28;20021;-92
2022/01/11 07:12:13;;;;;;;25.75;11.32;;;;;;;-1.50;89.87;103170.53;5053104;28;20027;-87
2022/01/11 07:14:38;;;;;;;25.80;11.93;;;;;;;-1.51;89.71;103175.50;5054961;28;20436;-87
2022/01/11 07:17:03;;;;;;;25.90;11.23;;;;;;;-1.53;89.95;103174.53;5054715;28;20504;-87
2022/01/11 07:19:29;;;;;;;26.60;11.68;;;;;;;-1.58;89.57;103176.75;5051283;28;20075;-87
2022/01/11 07:21:58;;;;;;;33.25;14.30;;;;;;;-1.48;89.12;103178.28;5054548;28;20078;-86
2022/01/11 07:24:24;;;;;;;31.42;14.32;;;;;;;-1.59;89.23;103186.03;5055957;28;20100;-87
2022/01/11 07:26:49;;;;;;;28.17;13.15;;;;;;;-1.60;89.79;103183.38;5056554;28;20068;-87
2022/01/11 07:29:15;;;;;;;28.50;12.38;;;;;;;-1.63;89.72;103188.25;5056439;28;20064;-87
2022/01/11 07:31:41;;;;;;;30.55;14.27;;;;;;;-1.57;89.56;103196.31;5054913;28;20155;-87
2022/01/11 07:34:08;;;;;;;30.63;15.07;;;;;;;-1.56;89.50;103193.91;5056674;28;20029;-87
2022/01/11 07:36:34;;;;;;;29.88;14.27;;;;;;;-1.61;89.30;103196.91;5056411;28;20455;-88
2022/01/11 07:38:59;;;;;;;30.23;13.45;;;;;;;-1.62;89.40;103200.22;5039668;28;20490;-87
2022/01/11 07:41:25;;;;;;;28.10;12.57;;;;;;;-1.63;89.75;103209.50;5037652;28;20095;-87
2022/01/11 07:43:50;;;;;;;27.42;12.55;;;;;;;-1.64;89.26;103206.84;5035714;28;20486;-87
2022/01/11 07:46:15;;;;;;;28.77;13.32;;;;;;;-1.64;89.37;103211.94;5036166;28;20505;-87
2022/01/11 07:48:41;;;;;;;25.02;12.15;;;;;;;-1.65;89.55;103212.72;5037004;28;20033;-88
2022/01/11 07:51:06;;;;;;;28.10;13.30;;;;;;;-1.62;89.01;103205.31;5052237;28;20033;-83
2022/01/11 07:53:32;;;;;;;27.15;12.82;;;;;;;-1.61;89.38;103222.34;5037245;28;20032;-91
2022/01/11 07:55:57;;;;;;;25.60;12.05;;;;;;;-1.65;89.49;103215.25;5036808;28;20382;-91
2022/01/11 07:58:23;;;;;;;30.42;15.02;;;;;;;-1.64;89.28;103206.84;5039892;28;20020;-90
2022/01/11 08:00:48;;;;;;;29.08;13.70;;;;;;;-1.68;89.42;103207.38;5049183;28;20021;-91
2022/01/11 08:03:22;;;;;;;25.40;12.00;;;;;;;-1.65;89.55;103212.72;5032633;28;20117;-92
2022/01/11 08:05:48;;;;;;;24.55;11.60;;;;;;;-1.67;89.63;103210.06;5048160;23;20095;-92
2022/01/11 08:08:13;;;;;;;25.63;11.65;;;;;;;-1.70;89.64;103204.75;5056264;28;20060;-92
2022/01/11 08:10:38;;;;;;;23.40;10.38;;;;;;;-1.60;89.92;103219.03;5056835;28;20033;-92
2022/01/11 08:13:07;;;;;;;22.90;10.35;;;;;;;-1.58;89.56;103209.84;5055735;28;20025;-92
2022/01/11 08:15:33;;;;;;;22.52;9.60;;;;;;;-1.53;89.64;103220.38;5056192;28;20048;-91
2022/01/11 08:17:59;;;;;;;21.30;9.25;;;;;;;-1.50;89.34;103208.75;5037777;28;20029;-91
2022/01/11 08:20:24;;;;;;;20.48;8.45;;;;;;;-1.47;89.32;103210.63;5035965;28;20030;-90
2022/01/11 08:22:51;;;;;;;20.55;8.65;;;;;;;-1.40;89.70;103215.38;5036205;28;20471;-91
2022/01/11 08:25:22;;;;;;;20.05;8.43;;;;;;;-1.37;89.68;103217.28;5041661;28;20025;-90
2022/01/11 08:27:47;;;;;;;20.60;8.60;;;;;;;-1.33;89.45;103219.25;5056184;28;20035;-92
2022/01/11 08:30:13;;;;;;;20.58;8.15;;;;;;;-1.26;89.63;103219.81;5055891;28;20141;-91
2022/01/11 08:32:38;;;;;;;20.05;8.18;;;;;;;-1.16;89.81;103230.66;5054448;28;20032;-90
2022/01/11 08:35:16;;;;;;;22.15;9.00;;;;;;;-0.92;89.01;103208.59;5055898;28;20025;-91
2022/01/11 08:37:41;;;;;;;26.15;11.70;;;;;;;-1.02;88.92;103214.69;5056435;28;20025;-91
2022/01/11 08:40:07;;;;;;;25.08;11.77;;;;;;;-0.95;89.35;103210.91;5055268;28;20362;-90
2022/01/11 08:42:32;;;;;;;25.67;12.50;;;;;;;-0.88;89.44;103217.31;5055222;28;20044;-91
2022/01/11 08:45:00;;;;;;;23.02;10.52;;;;;;;-0.83;88.90;103211.78;5055766;28;20079;-91
2022/01/11 08:47:30;;;;;;;22.80;10.32;;;;;;;-0.75;89.43;103211.41;5055233;28;20063;-91
2022/01/11 08:49:57;;;;;;;21.67;9.57;;;;;;;-0.72;89.37;103222.69;5056299;28;20021;-91
2022/01/11 08:52:34;;;;;;;23.27;10.05;;;;;;;-0.64;88.92;103224.16;5039070;28;20112;-91
2022/01/11 08:55:00;;;;;;;22.23;9.93;;;;;;;-0.55;88.94;103221.31;5035244;28;20084;-90
2022/01/11 08:57:44;;;;;;;22.83;9.93;;;;;;;-0.52;89.03;103203.69;5036143;28;20033;-91
2022/01/11 09:00:26;;;;;;;20.65;9.18;;;;;;;-0.41;89.13;103217.19;5051182;28;20032;-92
2022/01/11 09:03:04;;;;;;;20.17;8.75;;;;;;;-0.35;89.04;103220.13;5035385;28;20359;-91
2022/01/11 09:05:55;;;;;;;19.15;7.88;;;;;;;-0.25;88.83;103223.31;5034107;28;20049;-92
2022/01/11 09:08:29;;;;;;;17.55;7.40;;;;;;;-0.22;88.73;103221.84;5035440;28;20033;-92
2022/01/11 09:11:10;;;;;;;19.10;8.48;;;;;;;-0.14;88.60;103237.69;5036078;28;20473;-92
2022/01/11 09:13:48;;;;;;;18.80;7.95;;;;;;;-0.11;88.87;103224.25;5054084;28;20447;-91
2022/01/11 09:16:24;;;;;;;20.02;8.30;;;;;;;0.02;88.60;103242.16;5034802;28;20021;-93
2022/01/11 09:18:58;;;;;;;19.13;7.80;;;;;;;0.07;88.92;103245.00;5037306;28;20470;-92
2022/01/11 09:21:24;;;;;;;18.30;7.63;;;;;;;0.14;88.98;103237.84;5034897;28;20029;-93
2022/01/11 09:23:50;;;;;;;19.05;7.85;;;;;;;0.22;88.90;103232.41;5034888;28;20024;-92
2022/01/11 09:26:21;;;;;;;17.35;7.43;;;;;;;0.27;88.81;103233.56;5035155;28;20120;-94
2022/01/11 09:28:46;;;;;;;19.65;8.07;;;;;;;0.38;88.67;103244.50;5034914;28;20436;-93
2022/01/11 09:31:11;;;;;;;18.25;7.53;;;;;;;0.41;88.28;103243.03;5034625;28;20017;-92
2022/01/11 09:33:40;;;;;;;20.83;9.00;;;;;;;0.46;88.46;103230.53;5035433;28;20079;-93
2022/01/11 09:36:06;;;;;;;19.92;9.07;;;;;;;0.58;88.31;103249.22;5034498;28;20045;-93
2022/01/11 09:38:31;;;;;;;20.70;9.45;;;;;;;0.69;88.14;103246.47;5156578;22;20042;-92
2022/01/11 09:40:57;;;;;;;22.25;9.88;;;;;;;0.75;87.80;103244.31;5035488;28;20025;-93
2022/01/11 09:43:25;;;;;;;20.95;9.27;;;;;;;0.83;88.22;103249.91;5036748;28;20374;-92
2022/01/11 09:45:52;;;;;;;21.15;9.05;;;;;;;0.89;87.96;103246.06;5050507;28;20069;-93
2022/01/11 09:48:25;;;;;;;19.98;8.88;;;;;;;0.98;87.76;103253.44;5043840;28;20033;-93
2022/01/11 09:50:51;;;;;;;19.80;8.30;;;;;;;1.05;87.95;103257.28;5034968;28;20040;-94
2022/01/11 09:53:26;;;;;;;17.47;7.37;;;;;;;1.13;87.87;103253.53;5034832;28;20021;-94
2022/01/11 09:56:05;;;;;;;20.55;7.80;;;;;;;1.16;87.92;103250.25;5035015;28;20079;-93
2022/01/11 09:58:32;;;;;;;18.40;7.78;;;;;;;1.17;87.35;103250.38;5034641;28;20029;-94
2022/01/11 10:01:01;;;;;;;;;;;;;;;1.22;87.02;103261.75;5051825;28;20109;-94
2022/01/11 10:07:28;;;;;;;22.52;9.93;;;;;;;1.37;86.90;103256.72;5047555;28;20051;-89
2022/01/11 10:10:12;;;;;;;20.73;9.23;;;;;;;1.46;86.26;103273.44;5053141;28;20029;-94
2022/01/11 10:12:49;;;;;;;20.90;9.77;;;;;;;1.35;85.18;103254.84;5047167;22;20069;-94
2022/01/11 10:15:44;;;;;;;20.02;8.57;;;;;;;1.38;85.21;103265.28;5056359;28;20093;-94
2022/01/11 10:18:35;;;;;;;19.75;8.88;;;;;;;1.44;86.23;103269.91;5054462;28;20020;-94
2022/01/11 10:24:35;;;;;;;19.80;8.48;;;;;;;1.47;86.23;103268.41;5058984;22;20062;-90
2022/01/11 10:27:19;;;;;;;19.20;8.85;;;;;;;1.52;85.94;103258.44;5032798;28;20030;-94
2022/01/11 10:29:50;;;;;;;20.30;9.52;;;;;;;1.54;86.00;103265.41;5034525;28;20036;-94
2022/01/11 10:32:16;;;;;;;20.70;8.75;;;;;;;1.56;86.13;103260.41;5033972;28;20025;-95
2022/01/11 10:34:47;;;;;;;20.20;9.35;;;;;;;1.54;85.71;103255.19;5034320;28;20040;-95
2022/01/11 10:37:13;;;;;;;20.90;9.40;;;;;;;1.63;85.10;103264.25;5034448;28;20033;-94
2022/01/11 10:39:41;;;;;;;19.42;8.63;;;;;;;1.65;86.01;103268.66;5023499;28;20034;-94
2022/01/11 10:42:26;;;;;;;20.10;9.07;;;;;;;1.73;85.39;103274.25;5032935;28;20049;-95
2022/01/11 10:44:59;;;;;;;21.42;9.82;;;;;;;1.72;85.04;103267.34;5034487;28;20493;-94
2022/01/11 10:47:35;;;;;;;19.95;9.70;;;;;;;1.75;85.21;103264.06;5023261;28;20045;-94
2022/01/11 10:50:11;;;;;;;20.77;10.43;;;;;;;1.79;84.76;103264.34;5014895;28;20170;-95
2022/01/11 10:52:37;;;;;;;19.93;9.77;;;;;;;1.78;84.82;103271.94;5014258;28;20029;-93
2022/01/11 10:55:05;;;;;;;19.63;9.00;;;;;;;1.81;84.95;103261.88;5014691;28;20030;-94
2022/01/11 10:57:38;;;;;;;20.92;9.52;;;;;;;1.88;85.12;103270.81;5014183;28;20017;-94
2022/01/11 11:00:28;;;;;;;18.25;8.48;;;;;;;1.90;85.05;103274.34;5027414;28;20028;-94
2022/01/11 11:03:03;;;;;;;17.25;7.50;;;;;;;1.92;85.21;103271.06;5006262;28;20108;-95
2022/01/11 11:05:37;;;;;;;17.95;7.80;;;;;;;1.95;84.90;103261.03;5032227;28;20064;-96
2022/01/11 11:08:06;;;;;;;19.48;8.88;;;;;;;2.04;84.53;103262.34;5036190;28;20053;-95
2022/01/11 11:10:36;;;;;;;18.08;7.70;;;;;;;2.03;84.38;103266.59;5036821;28;20021;-94
2022/01/11 11:13:03;;;;;;;18.80;7.97;;;;;;;2.13;84.46;103268.03;5036506;28;20116;-95
2022/01/11 11:15:30;;;;;;;;;;;;;;;2.11;85.08;103264.50;5037907;28;20355;-94
2022/01/11 11:17:55;;;;;;;18.48;7.80;;;;;;;2.13;84.95;103274.03;5054000;28;19901;-95
2022/01/11 11:20:20;;;;;;;16.88;6.75;;;;;;;2.16;84.88;103274.22;5042463;28;20462;-94
2022/01/11 11:22:46;;;;;;;17.83;7.40;;;;;;;2.22;85.09;103280.50;5037031;28;20065;-94
2022/01/11 11:25:33;;;;;;;16.27;6.82;;;;;;;2.26;85.01;103272.19;5037253;28;20028;-95
2022/01/11 11:27:59;;;;;;;15.20;6.22;;;;;;;2.25;84.76;103260.19;5037010;28;20034;-94
2022/01/11 11:30:27;;;;;;;15.60;6.72;;;;;;;2.30;84.57;103269.03;5037691;28;20128;-95
2022/01/11 11:33:06;;;;;;;13.77;6.03;;;;;;;2.27;84.33;103256.91;5036878;28;20036;-94
2022/01/11 11:35:50;;;;;;;16.73;7.35;;;;;;;2.36;84.24;103254.00;5037270;28;20021;-95
2022/01/11 11:38:17;;;;;;;18.77;8.02;;;;;;;2.43;83.86;103248.41;5035939;28;20021;-95
2022/01/11 11:40:56;;;;;;;18.42;8.02;;;;;;;2.45;83.75;103235.69;5036994;28;20026;-94
2022/01/11 11:43:22;;;;;;;16.30;7.25;;;;;;;2.54;84.27;103243.91;5036013;28;20034;-94
2022/01/11 11:45:48;;;;;;;16.10;6.97;;;;;;;2.55;83.16;103235.44;5036741;28;20028;-95
2022/01/11 11:48:34;;;;;;;16.60;6.97;;;;;;;2.71;83.90;103243.97;5035306;28;20076;-95
2022/01/11 11:53:50;;;;;;;17.90;7.50;;;;;;;2.81;82.44;103228.31;5036071;28;20051;-95
2022/01/11 11:56:19;;;;;;;16.65;7.40;;;;;;;2.98;83.22;103246.28;5035056;28;20021;-94
2022/01/11 11:59:09;;;;;;;17.92;7.45;;;;;;;3.12;82.56;103249.59;5035333;28;20021;-94